createdAt,value
2022-09-05T00:00:17.977Z,7.29
2022-09-05T00:03:20.747Z,7.24
2022-09-05T00:06:11.612Z,7.23
2022-09-05T00:09:45.736Z,7.18
2022-09-05T00:12:32.899Z,7.16
2022-09-05T00:15:51.214Z,7.10
2022-09-05T00:24:19.670Z,7.04
2022-09-05T00:24:27.280Z,7.00
2022-09-05T00:25:51.850Z,6.94
2022-09-05T00:28:52.015Z,6.90
2022-09-05T00:32:03.254Z,6.86
2022-09-05T00:34:51.455Z,6.82
2022-09-05T00:37:49.155Z,6.78
2022-09-05T00:40:43.147Z,6.76
2022-09-05T00:43:35.217Z,6.76
2022-09-05T00:46:28.702Z,6.74
2022-09-05T00:49:20.232Z,6.69
2022-09-05T00:52:19.057Z,6.70
2022-09-05T00:55:10.442Z,6.65
2022-09-05T00:58:01.937Z,6.68
2022-09-05T01:00:56.131Z,6.62
2022-09-05T01:03:58.166Z,6.59
2022-09-05T01:06:55.648Z,6.59
2022-09-05T01:10:15.134Z,6.53
2022-09-05T01:13:27.969Z,6.50
2022-09-05T01:16:28.709Z,6.53
2022-09-05T01:19:29.487Z,6.53
2022-09-05T01:22:48.550Z,6.49
2022-09-05T01:26:10.381Z,6.48
2022-09-05T01:29:17.208Z,6.49
2022-09-05T01:32:29.398Z,6.49
2022-09-05T01:35:36.776Z,6.48
2022-09-05T01:38:44.563Z,6.49
2022-09-05T01:42:00.507Z,6.51
2022-09-05T01:45:03.761Z,6.56
2022-09-05T01:47:52.314Z,6.59
2022-09-05T01:51:29.395Z,6.60
2022-09-05T01:54:30.290Z,6.66
2022-09-05T01:57:21.334Z,6.68
2022-09-05T02:00:13.890Z,6.64
2022-09-05T02:03:14.785Z,6.65
2022-09-05T02:06:07.227Z,6.68
2022-09-05T02:09:14.633Z,6.70
2022-09-05T02:12:14.742Z,6.71
2022-09-05T02:15:13.554Z,6.75
2022-09-05T02:18:01.130Z,6.69
2022-09-05T02:21:22.265Z,6.62
2022-09-05T02:24:18.078Z,6.57
2022-09-05T02:27:06.081Z,6.51
2022-09-05T02:30:16.166Z,6.45
2022-09-05T02:33:22.862Z,6.37
2022-09-05T02:36:36.447Z,6.34
2022-09-05T02:45:07.477Z,6.28
2022-09-05T02:45:16.768Z,6.26
2022-09-05T02:46:11.216Z,6.29
2022-09-05T02:49:20.362Z,6.33
2022-09-05T02:57:28.116Z,6.41
2022-09-05T02:57:36.106Z,6.52
2022-09-05T02:59:36.009Z,6.61
2022-09-05T03:02:34.179Z,6.61
2022-09-05T03:05:45.870Z,6.59
2022-09-05T03:08:34.018Z,6.56
2022-09-05T03:11:44.886Z,6.49
2022-09-05T03:14:49.169Z,6.36
2022-09-05T03:17:36.945Z,6.34
2022-09-05T03:21:09.118Z,6.27
2022-09-05T03:24:32.928Z,6.23
2022-09-05T03:27:30.572Z,6.18
2022-09-05T03:30:18.862Z,6.14
2022-09-05T03:33:36.995Z,6.08
2022-09-05T03:36:47.369Z,5.98
2022-09-05T03:40:16.317Z,5.94
2022-09-05T03:43:39.830Z,5.84
2022-09-05T03:46:39.307Z,5.79
2022-09-05T03:57:08.458Z,5.70
2022-09-05T03:57:08.731Z,5.66
2022-09-05T04:00:25.241Z,5.58
2022-09-05T04:08:07.246Z,5.54
2022-09-05T04:08:15.119Z,5.58
2022-09-05T04:09:51.024Z,5.60
2022-09-05T04:12:55.756Z,5.65
2022-09-05T04:15:43.273Z,5.72
2022-09-05T04:18:38.636Z,5.77
2022-09-05T04:21:32.576Z,5.85
2022-09-05T04:24:48.880Z,6.02
2022-09-05T04:28:14.219Z,6.36
2022-09-05T04:31:12.933Z,6.65
2022-09-05T04:34:40.987Z,6.85
2022-09-05T04:38:18.945Z,7.21
2022-09-05T04:41:37.706Z,7.51
2022-09-05T04:44:31.330Z,7.89
2022-09-05T04:47:23.113Z,8.25
2022-09-05T04:50:23.346Z,8.76
2022-09-05T04:53:33.461Z,9.18
2022-09-05T04:56:26.748Z,9.61
2022-09-05T05:02:44.597Z,10.03
2022-09-05T05:06:10.665Z,10.49
2022-09-05T05:06:14.077Z,10.95
2022-09-05T05:09:00.981Z,11.41
2022-09-05T05:16:20.644Z,11.98
2022-09-05T05:18:08.630Z,12.57
2022-09-05T05:18:56.037Z,13.33
2022-09-05T05:21:49.180Z,13.83
2022-09-05T05:24:42.135Z,14.54
2022-09-05T05:27:39.560Z,15.13
2022-09-05T05:30:28.933Z,15.50
2022-09-05T05:33:28.627Z,15.81
2022-09-05T05:36:23.209Z,16.24
2022-09-05T05:39:12.728Z,16.35
2022-09-05T05:42:06.818Z,16.76
2022-09-05T05:45:16.112Z,17.13
2022-09-05T05:48:06.225Z,17.34
2022-09-05T05:51:15.216Z,17.32
2022-09-05T05:54:14.478Z,17.69
2022-09-05T05:57:35.763Z,18.49
2022-09-05T06:00:27.858Z,19.66
2022-09-05T06:03:38.697Z,20.45
2022-09-05T06:06:32.173Z,21.02
2022-09-05T06:12:54.911Z,21.70
2022-09-05T06:15:01.766Z,22.62
2022-09-05T06:17:03.602Z,23.27
2022-09-05T06:22:04.751Z,23.99
2022-09-05T06:23:39.360Z,24.81
2022-09-05T06:26:49.394Z,25.32
2022-09-05T06:29:47.291Z,26.02
2022-09-05T06:33:09.508Z,26.79
2022-09-05T06:36:04.392Z,27.50
2022-09-05T06:39:18.161Z,27.78
2022-09-05T06:42:39.144Z,28.36
2022-09-05T06:45:44.422Z,29.07
2022-09-05T06:48:45.616Z,29.55
2022-09-05T06:51:44.211Z,29.98
2022-09-05T06:54:49.053Z,30.42
2022-09-05T06:58:12.153Z,30.56
2022-09-05T07:01:00.984Z,30.73
2022-09-05T07:04:54.005Z,30.63
2022-09-05T07:07:18.367Z,30.66
2022-09-05T07:10:35.017Z,30.02
2022-09-05T07:14:00.872Z,29.87
2022-09-05T07:16:58.345Z,30.30
2022-09-05T07:19:54.827Z,30.50
2022-09-05T07:24:06.779Z,30.73
2022-09-05T07:26:20.473Z,31.49
2022-09-05T07:29:34.525Z,32.11
2022-09-05T07:32:24.229Z,32.72
2022-09-05T07:35:31.251Z,33.02
2022-09-05T07:38:48.321Z,33.64
2022-09-05T07:41:39.640Z,34.15
2022-09-05T07:44:36.224Z,34.59
2022-09-05T07:47:27.271Z,35.03
2022-09-05T07:52:02.398Z,35.41
2022-09-05T07:56:52.627Z,35.78
2022-09-05T07:57:22.392Z,35.82
2022-09-05T07:59:58.338Z,36.16
2022-09-05T08:02:47.005Z,36.37
2022-09-05T08:05:40.907Z,36.82
2022-09-05T08:08:38.531Z,37.22
2022-09-05T08:11:30.561Z,37.63
2022-09-05T08:14:43.694Z,37.76
2022-09-05T08:17:33.248Z,38.05
2022-09-05T08:20:30.551Z,38.02
2022-09-05T08:23:33.175Z,37.41
2022-09-05T08:26:44.075Z,36.34
2022-09-05T08:29:40.519Z,35.33
2022-09-05T08:32:40.469Z,34.31
2022-09-05T08:35:33.237Z,34.44
2022-09-05T08:38:19.425Z,34.94
2022-09-05T08:41:14.420Z,35.62
2022-09-05T08:46:37.302Z,36.19
2022-09-05T08:47:48.399Z,36.94
2022-09-05T08:50:58.258Z,37.45
2022-09-05T08:54:01.558Z,36.73
2022-09-05T08:57:09.148Z,36.64
2022-09-05T09:00:20.525Z,36.79
2022-09-05T09:03:22.547Z,36.12
2022-09-05T09:07:14.514Z,33.76
2022-09-05T09:10:12.545Z,32.82
2022-09-05T09:13:13.764Z,33.34
2022-09-05T09:16:04.811Z,34.41
2022-09-05T09:18:50.235Z,35.44
2022-09-05T09:21:59.449Z,36.22
2022-09-05T09:25:12.033Z,36.05
2022-09-05T09:28:45.299Z,34.33
2022-09-05T09:31:18.239Z,33.32
2022-09-05T09:34:25.604Z,32.44
2022-09-05T09:37:50.524Z,31.35
2022-09-05T09:41:00.474Z,30.60
2022-09-05T09:44:06.277Z,31.33
2022-09-05T09:46:52.656Z,32.65
2022-09-05T09:49:41.305Z,33.58
2022-09-05T09:52:57.459Z,34.20
2022-09-05T09:56:06.995Z,34.53
2022-09-05T09:59:14.133Z,34.33
2022-09-05T10:04:31.069Z,33.62
2022-09-05T10:10:39.892Z,33.72
2022-09-05T10:10:47.949Z,34.02
2022-09-05T10:12:46.298Z,34.86
2022-09-05T10:15:53.934Z,35.21
2022-09-05T10:19:04.409Z,35.48
2022-09-05T10:25:18.650Z,35.67
2022-09-05T10:28:30.283Z,36.34
2022-09-05T10:32:26.024Z,36.03
2022-09-05T10:35:14.792Z,35.54
2022-09-05T10:38:10.089Z,34.81
2022-09-05T10:41:21.169Z,34.08
2022-09-05T10:44:12.146Z,34.16
2022-09-05T10:47:06.297Z,34.46
2022-09-05T10:50:11.358Z,34.82
2022-09-05T10:53:21.351Z,35.67
2022-09-05T10:56:28.840Z,36.83
2022-09-05T11:00:52.074Z,37.50
2022-09-05T11:02:38.256Z,38.76
2022-09-05T11:05:34.892Z,39.36
2022-09-05T11:08:42.414Z,38.74
2022-09-05T11:11:34.503Z,36.88
2022-09-05T11:14:45.081Z,34.81
2022-09-05T11:17:39.594Z,33.46
2022-09-05T11:20:35.896Z,31.90
2022-09-05T11:23:30.448Z,30.48
2022-09-05T11:26:19.854Z,29.53
2022-09-05T11:29:09.473Z,28.66
2022-09-05T11:36:14.673Z,28.31
2022-09-05T11:39:56.166Z,27.41
2022-09-05T11:40:04.702Z,27.88
2022-09-05T11:42:10.883Z,27.04
2022-09-05T11:45:25.331Z,26.98
2022-09-05T11:48:34.664Z,27.84
2022-09-05T11:51:57.653Z,29.36
2022-09-05T11:54:57.912Z,30.14
2022-09-05T11:58:44.623Z,30.70
2022-09-05T12:01:55.586Z,31.95
2022-09-05T12:05:50.667Z,33.04
2022-09-05T12:08:45.654Z,33.67
2022-09-05T12:11:56.203Z,33.50
2022-09-05T12:15:11.549Z,33.51
2022-09-05T12:18:19.520Z,33.17
2022-09-05T12:21:22.208Z,32.10
2022-09-05T12:25:15.539Z,31.01
2022-09-05T12:27:42.121Z,29.96
2022-09-05T12:30:41.748Z,28.90
2022-09-05T12:36:05.776Z,27.98
2022-09-05T12:40:44.852Z,27.22
2022-09-05T12:41:35.077Z,26.38
2022-09-05T12:44:39.119Z,25.85
2022-09-05T12:46:37.671Z,25.51
2022-09-05T12:49:54.301Z,25.29
2022-09-05T12:52:59.872Z,25.00
2022-09-05T12:56:26.848Z,24.79
2022-09-05T13:03:01.347Z,24.57
2022-09-05T13:03:03.931Z,24.55
2022-09-05T13:05:57.497Z,24.44
2022-09-05T13:09:00.031Z,24.22
2022-09-05T13:14:55.029Z,23.91
2022-09-05T13:15:28.125Z,23.81
2022-09-05T13:18:21.170Z,23.84
2022-09-05T13:21:23.320Z,23.88
2022-09-05T13:24:12.523Z,24.18
2022-09-05T13:27:17.321Z,24.33
2022-09-05T13:34:04.478Z,24.41
2022-09-05T13:38:06.159Z,24.58
2022-09-05T13:38:30.437Z,24.45
2022-09-05T13:40:23.352Z,24.68
2022-09-05T13:43:30.753Z,25.10
2022-09-05T13:46:24.253Z,25.38
2022-09-05T13:49:27.859Z,25.15
2022-09-05T13:52:15.491Z,25.02
2022-09-05T13:55:22.467Z,24.82
2022-09-05T13:58:22.376Z,24.53
2022-09-05T14:01:33.735Z,24.30
2022-09-05T14:05:12.862Z,24.05
2022-09-05T14:08:18.132Z,24.02
2022-09-05T14:11:18.918Z,24.05
2022-09-05T14:14:11.195Z,24.00
2022-09-05T14:20:49.774Z,23.68
2022-09-05T14:23:59.271Z,23.45
2022-09-05T14:27:06.357Z,23.29
2022-09-05T14:29:52.216Z,23.04
2022-09-05T14:37:43.859Z,22.92
2022-09-05T14:37:51.308Z,22.87
2022-09-05T14:38:55.838Z,23.01
2022-09-05T14:44:22.276Z,23.42
2022-09-05T14:47:32.460Z,23.59
2022-09-05T14:50:35.097Z,23.70
2022-09-05T14:56:08.332Z,23.50
2022-09-05T15:02:40.791Z,23.12
2022-09-05T15:02:48.565Z,23.32
2022-09-05T15:04:40.969Z,22.99
2022-09-05T15:07:25.451Z,22.88
2022-09-05T15:12:14.553Z,22.88
2022-09-05T15:13:25.651Z,22.80
2022-09-05T15:16:06.624Z,22.72
2022-09-05T15:18:44.658Z,22.69
2022-09-05T15:21:33.198Z,22.68
2022-09-05T15:24:21.455Z,22.67
2022-09-05T15:26:54.579Z,22.71
2022-09-05T15:29:23.595Z,22.74
2022-09-05T15:31:51.384Z,22.63
2022-09-05T15:34:26.504Z,22.70
2022-09-05T15:36:56.241Z,22.67
2022-09-05T15:39:36.028Z,22.54
2022-09-05T15:42:18.638Z,22.38
2022-09-05T15:45:09.392Z,22.29
2022-09-05T15:47:34.809Z,22.17
2022-09-05T15:50:07.590Z,22.13
2022-09-05T15:52:54.876Z,22.06
2022-09-05T15:55:26.835Z,21.97
2022-09-05T15:57:55.628Z,21.93
2022-09-05T16:00:39.156Z,21.82
2022-09-05T16:06:28.696Z,21.76
2022-09-05T16:10:12.234Z,21.71
2022-09-05T16:10:49.146Z,21.55
2022-09-05T16:15:27.819Z,21.20
2022-09-05T16:23:17.889Z,20.96
2022-09-05T16:23:33.474Z,20.82
2022-09-05T16:23:44.046Z,20.70
2022-09-05T16:26:26.194Z,20.54
2022-09-05T16:29:19.532Z,20.41
2022-09-05T16:31:59.633Z,20.29
2022-09-05T16:34:54.843Z,20.15
2022-09-05T16:37:35.805Z,20.06
2022-09-05T16:40:22.971Z,19.92
2022-09-05T16:42:55.862Z,19.84
2022-09-05T16:45:35.255Z,19.72
2022-09-05T16:48:30.841Z,19.59
2022-09-05T16:51:36.270Z,19.44
2022-09-05T16:54:28.815Z,19.34
2022-09-05T16:56:58.354Z,19.21
2022-09-05T16:59:32.048Z,19.10
2022-09-05T17:02:24.523Z,18.96
2022-09-05T17:05:13.121Z,18.85
2022-09-05T17:07:58.870Z,18.73
2022-09-05T17:10:31.357Z,18.61
2022-09-05T17:12:58.433Z,18.26
2022-09-05T17:15:38.334Z,17.92
2022-09-05T17:18:25.023Z,17.59
2022-09-05T17:21:00.567Z,17.36
2022-09-05T17:29:17.570Z,17.10
2022-09-05T17:29:28.936Z,16.82
2022-09-05T17:32:49.520Z,16.08
2022-09-05T17:35:42.695Z,15.94
2022-09-05T17:38:15.823Z,15.67
2022-09-05T17:41:12.119Z,15.37
2022-09-05T17:43:40.949Z,15.20
2022-09-05T17:46:22.198Z,15.07
2022-09-05T17:49:10.149Z,14.97
2022-09-05T17:51:51.522Z,14.86
2022-09-05T17:54:27.212Z,14.66
2022-09-05T17:56:54.303Z,14.52
2022-09-05T17:59:21.403Z,14.39
2022-09-05T18:02:08.467Z,14.22
2022-09-05T18:04:47.626Z,14.08
2022-09-05T18:07:26.479Z,13.98
2022-09-05T18:13:31.124Z,13.72
2022-09-05T18:15:39.563Z,13.50
2022-09-05T18:19:29.098Z,13.35
2022-09-05T18:21:22.537Z,13.17
2022-09-05T18:24:11.999Z,12.99
2022-09-05T18:26:46.577Z,12.82
2022-09-05T18:29:58.467Z,12.73
2022-09-05T18:32:43.823Z,12.62
2022-09-05T18:35:26.439Z,12.54
2022-09-05T18:38:06.589Z,12.43
2022-09-05T18:40:40.702Z,12.37
2022-09-05T18:43:24.426Z,12.20
2022-09-05T18:45:55.698Z,12.17
2022-09-05T18:48:29.907Z,12.13
2022-09-05T18:51:13.367Z,12.10
2022-09-05T18:53:47.620Z,12.00
2022-09-05T18:56:22.889Z,11.88
2022-09-05T18:59:09.457Z,11.74
2022-09-05T19:01:50.501Z,11.67
2022-09-05T19:04:41.459Z,11.58
2022-09-05T19:07:14.102Z,11.52
2022-09-05T19:10:35.103Z,11.47
2022-09-05T19:13:15.049Z,11.37
2022-09-05T19:15:52.929Z,11.28
2022-09-05T19:18:36.971Z,11.16
2022-09-05T19:21:17.731Z,11.08
2022-09-05T19:23:55.164Z,10.98
2022-09-05T19:26:23.350Z,10.90
2022-09-05T19:35:10.118Z,10.86
2022-09-05T19:37:04.605Z,10.73
2022-09-05T19:37:08.889Z,10.80
2022-09-05T19:37:48.345Z,10.69
2022-09-05T19:47:31.112Z,10.64
2022-09-05T19:47:39.457Z,10.56
2022-09-05T19:47:41.053Z,10.48
2022-09-05T19:49:11.535Z,10.38
2022-09-05T19:51:41.247Z,10.31
2022-09-05T19:54:24.668Z,10.23
2022-09-05T19:56:57.144Z,10.20
2022-09-05T19:59:38.166Z,10.10
2022-09-05T20:02:23.063Z,9.97
2022-09-05T20:05:00.259Z,9.92
2022-09-05T20:07:30.047Z,9.86
2022-09-05T20:10:00.835Z,9.78
2022-09-05T20:12:32.517Z,9.73
2022-09-05T20:15:35.897Z,9.61
2022-09-05T20:18:24.058Z,9.52
2022-09-05T20:21:20.701Z,9.49
2022-09-05T20:23:51.872Z,9.43
2022-09-05T20:26:22.940Z,9.39
2022-09-05T20:28:56.249Z,9.32
2022-09-05T20:31:29.998Z,9.26
2022-09-05T20:33:58.572Z,9.20
2022-09-05T20:43:08.786Z,9.12
2022-09-05T20:43:16.678Z,9.01
2022-09-05T20:43:29.306Z,8.92
2022-09-05T20:45:44.569Z,8.85
2022-09-05T20:54:02.305Z,8.84
2022-09-05T20:54:14.081Z,8.80
2022-09-05T20:54:16.435Z,8.76
2022-09-05T20:56:36.583Z,8.71
2022-09-05T20:59:03.600Z,8.66
2022-09-05T21:01:32.658Z,8.61
2022-09-05T21:04:04.869Z,8.57
2022-09-05T21:06:34.599Z,8.52
2022-09-05T21:09:34.228Z,8.44
2022-09-05T21:12:09.185Z,8.41
2022-09-05T21:14:41.831Z,8.36
2022-09-05T21:17:16.109Z,8.34
2022-09-05T21:19:53.456Z,8.35
2022-09-05T21:22:21.310Z,8.37
2022-09-05T21:25:07.545Z,8.41
2022-09-05T21:27:34.719Z,8.47
2022-09-05T21:30:20.889Z,8.52
2022-09-05T21:32:50.790Z,8.60
2022-09-05T21:35:34.610Z,8.67
2022-09-05T21:38:02.680Z,8.75
2022-09-05T21:40:29.549Z,8.80
2022-09-05T21:47:36.053Z,8.86
2022-09-05T21:47:42.054Z,8.92
2022-09-05T21:48:35.910Z,9.00
2022-09-05T21:51:07.559Z,9.04
2022-09-05T21:58:43.403Z,9.10
2022-09-05T21:59:29.239Z,9.13
2022-09-05T21:59:36.468Z,9.03
2022-09-05T22:02:07.232Z,8.95
2022-09-05T22:04:41.056Z,8.89
2022-09-05T22:07:16.348Z,8.89
2022-09-05T22:09:58.882Z,8.89
2022-09-05T22:12:35.982Z,8.89
2022-09-05T22:15:26.494Z,8.88
2022-09-05T22:17:58.357Z,8.85
2022-09-05T22:20:41.901Z,8.83
2022-09-05T22:23:09.981Z,8.82
2022-09-05T22:25:37.095Z,8.79
2022-09-05T22:28:12.874Z,8.74
2022-09-05T22:30:40.178Z,8.71
2022-09-05T22:33:08.017Z,8.67
2022-09-05T22:35:37.129Z,8.63
2022-09-05T22:38:10.968Z,8.52
2022-09-05T22:40:40.933Z,8.49
2022-09-05T22:43:10.239Z,8.43
2022-09-05T22:45:39.402Z,8.37
2022-09-05T22:48:09.351Z,8.27
2022-09-05T22:50:37.317Z,8.23
2022-09-05T22:53:07.092Z,8.15
2022-09-05T22:55:39.767Z,8.05
2022-09-05T22:58:08.400Z,8.00
2022-09-05T23:00:35.780Z,7.94
2022-09-05T23:03:04.628Z,7.91
2022-09-05T23:05:32.872Z,7.86
2022-09-05T23:08:00.926Z,7.79
2022-09-05T23:10:28.158Z,7.72
2022-09-05T23:12:55.899Z,7.63
2022-09-05T23:15:22.873Z,7.57
2022-09-05T23:17:56.670Z,7.47
2022-09-05T23:20:25.455Z,7.39
2022-09-05T23:22:52.702Z,7.29
2022-09-05T23:25:19.846Z,7.23
2022-09-05T23:27:47.283Z,7.18
2022-09-05T23:30:15.353Z,7.14
2022-09-05T23:32:46.558Z,7.07
2022-09-05T23:35:14.752Z,7.01
2022-09-05T23:37:46.109Z,6.96
2022-09-05T23:40:18.018Z,6.89
2022-09-05T23:42:57.103Z,6.81
2022-09-05T23:45:25.128Z,6.76
2022-09-05T23:47:52.439Z,6.71
2022-09-05T23:50:20.211Z,6.66
2022-09-05T23:52:47.799Z,6.64
2022-09-05T23:55:17.512Z,6.60
2022-09-05T23:57:45.512Z,6.55
